sensor_id;sensor_type;location;lat;lon;timestamp;pressure;altitude;pressure_sealevel;temperature;humidity
28606;BME280;46498;49.968;7.754;2022-12-29T00:02:27;96306.00;;;8.30;100.00
28606;BME280;46498;49.968;7.754;2022-12-29T00:07:28;96307.00;;;8.32;100.00
28606;BME280;46498;49.968;7.754;2022-12-29T00:12:29;96303.00;;;8.22;100.00
28606;BME280;46498;49.968;7.754;2022-12-29T00:20:37;96295.00;;;8.15;100.00
28606;BME280;46498;49.968;7.754;2022-12-29T00:25:57;96294.00;;;8.01;100.00
28606;BME280;46498;49.968;7.754;2022-12-29T00:31:16;96297.00;;;7.87;100.00
28606;BME280;46498;49.968;7.754;2022-12-29T00:36:39;96284.00;;;7.83;100.00
28606;BME280;46498;49.968;7.754;2022-12-29T00:41:41;96270.00;;;7.80;100.00
28606;BME280;46498;49.968;7.754;2022-12-29T00:47:00;96270.00;;;7.76;100.00
28606;BME280;46498;49.968;7.754;2022-12-29T00:52:08;96273.00;;;7.76;100.00
28606;BME280;46498;49.968;7.754;2022-12-29T00:57:09;96259.00;;;7.81;100.00
28606;BME280;46498;49.968;7.754;2022-12-29T01:02:10;96256.00;;;7.81;100.00
28606;BME280;46498;49.968;7.754;2022-12-29T01:07:11;96236.00;;;7.77;100.00
28606;BME280;46498;49.968;7.754;2022-12-29T01:12:12;96243.00;;;7.75;100.00
28606;BME280;46498;49.968;7.754;2022-12-29T01:17:15;96239.00;;;7.70;100.00
28606;BME280;46498;49.968;7.754;2022-12-29T01:22:15;96239.00;;;7.69;100.00
28606;BME280;46498;49.968;7.754;2022-12-29T01:27:18;96240.00;;;7.69;100.00
28606;BME280;46498;49.968;7.754;2022-12-29T01:32:19;96253.00;;;7.72;100.00
28606;BME280;46498;49.968;7.754;2022-12-29T01:37:20;96233.00;;;7.70;100.00
28606;BME280;46498;49.968;7.754;2022-12-29T01:42:24;96241.00;;;7.77;100.00
28606;BME280;46498;49.968;7.754;2022-12-29T01:48:11;96247.00;;;7.70;100.00
28606;BME280;46498;49.968;7.754;2022-12-29T01:53:17;96243.00;;;7.65;100.00
28606;BME280;46498;49.968;7.754;2022-12-29T01:58:22;96248.00;;;7.63;100.00
28606;BME280;46498;49.968;7.754;2022-12-29T02:03:26;96232.00;;;7.60;100.00
28606;BME280;46498;49.968;7.754;2022-12-29T02:08:28;96211.00;;;7.56;100.00
28606;BME280;46498;49.968;7.754;2022-12-29T02:13:30;96224.00;;;7.53;100.00
28606;BME280;46498;49.968;7.754;2022-12-29T02:31:29;96206.00;;;7.63;100.00
28606;BME280;46498;49.968;7.754;2022-12-29T02:36:55;96208.00;;;7.64;100.00
28606;BME280;46498;49.968;7.754;2022-12-29T02:49:42;96197.00;;;7.71;100.00
28606;BME280;46498;49.968;7.754;2022-12-29T02:54:48;96183.00;;;7.78;100.00
28606;BME280;46498;49.968;7.754;2022-12-29T02:59:52;96187.00;;;7.86;100.00
28606;BME280;46498;49.968;7.754;2022-12-29T03:05:30;96173.00;;;7.90;100.00
28606;BME280;46498;49.968;7.754;2022-12-29T03:11:07;96173.00;;;7.89;100.00
28606;BME280;46498;49.968;7.754;2022-12-29T03:17:18;96161.00;;;7.91;100.00
28606;BME280;46498;49.968;7.754;2022-12-29T03:22:27;96162.00;;;7.96;100.00
28606;BME280;46498;49.968;7.754;2022-12-29T03:27:47;96153.00;;;8.06;100.00
28606;BME280;46498;49.968;7.754;2022-12-29T03:32:53;96153.00;;;8.06;100.00
28606;BME280;46498;49.968;7.754;2022-12-29T03:38:09;96150.00;;;8.14;100.00
28606;BME280;46498;49.968;7.754;2022-12-29T03:43:12;96132.00;;;8.24;100.00
28606;BME280;46498;49.968;7.754;2022-12-29T03:48:15;96135.00;;;8.20;100.00
28606;BME280;46498;49.968;7.754;2022-12-29T03:53:17;96130.00;;;8.30;100.00
28606;BME280;46498;49.968;7.754;2022-12-29T03:58:19;96124.00;;;8.24;100.00
28606;BME280;46498;49.968;7.754;2022-12-29T04:03:30;96125.00;;;8.26;100.00
28606;BME280;46498;49.968;7.754;2022-12-29T04:08:31;96149.00;;;8.35;100.00
28606;BME280;46498;49.968;7.754;2022-12-29T04:13:32;96138.00;;;8.37;100.00
28606;BME280;46498;49.968;7.754;2022-12-29T04:18:34;96134.00;;;8.38;100.00
28606;BME280;46498;49.968;7.754;2022-12-29T04:23:36;96140.00;;;8.29;100.00
28606;BME280;46498;49.968;7.754;2022-12-29T04:28:40;96135.00;;;8.37;100.00
28606;BME280;46498;49.968;7.754;2022-12-29T04:33:50;96131.00;;;8.44;100.00
28606;BME280;46498;49.968;7.754;2022-12-29T04:38:51;96125.00;;;8.44;100.00
28606;BME280;46498;49.968;7.754;2022-12-29T04:43:52;96127.00;;;8.44;100.00
28606;BME280;46498;49.968;7.754;2022-12-29T04:49:28;96124.00;;;8.40;100.00
28606;BME280;46498;49.968;7.754;2022-12-29T04:55:03;96125.00;;;8.34;100.00
28606;BME280;46498;49.968;7.754;2022-12-29T05:00:06;96144.00;;;8.32;100.00
28606;BME280;46498;49.968;7.754;2022-12-29T05:05:09;96141.00;;;8.26;100.00
28606;BME280;46498;49.968;7.754;2022-12-29T05:10:15;96138.00;;;8.16;100.00
28606;BME280;46498;49.968;7.754;2022-12-29T05:15:17;96157.00;;;8.08;100.00
28606;BME280;46498;49.968;7.754;2022-12-29T05:20:19;96144.00;;;8.07;100.00
28606;BME280;46498;49.968;7.754;2022-12-29T05:25:20;96149.00;;;8.14;100.00
28606;BME280;46498;49.968;7.754;2022-12-29T05:30:42;96137.00;;;8.16;100.00
28606;BME280;46498;49.968;7.754;2022-12-29T05:35:43;96143.00;;;8.15;100.00
28606;BME280;46498;49.968;7.754;2022-12-29T05:40:44;96141.00;;;8.16;100.00
28606;BME280;46498;49.968;7.754;2022-12-29T05:45:57;96147.00;;;8.19;100.00
28606;BME280;46498;49.968;7.754;2022-12-29T05:51:18;96148.00;;;8.25;100.00
28606;BME280;46498;49.968;7.754;2022-12-29T05:56:25;96146.00;;;8.37;100.00
28606;BME280;46498;49.968;7.754;2022-12-29T06:01:30;96148.00;;;8.34;100.00
28606;BME280;46498;49.968;7.754;2022-12-29T06:06:31;96144.00;;;8.25;100.00
28606;BME280;46498;49.968;7.754;2022-12-29T06:11:32;96139.00;;;8.19;100.00
28606;BME280;46498;49.968;7.754;2022-12-29T06:16:33;96123.00;;;8.21;100.00
28606;BME280;46498;49.968;7.754;2022-12-29T06:21:38;96136.00;;;8.19;100.00
28606;BME280;46498;49.968;7.754;2022-12-29T06:26:40;96140.00;;;8.15;100.00
28606;BME280;46498;49.968;7.754;2022-12-29T06:31:41;96141.00;;;8.05;100.00
28606;BME280;46498;49.968;7.754;2022-12-29T06:36:42;96134.00;;;7.95;100.00
28606;BME280;46498;49.968;7.754;2022-12-29T06:41:43;96125.00;;;7.94;100.00
28606;BME280;46498;49.968;7.754;2022-12-29T06:47:09;96130.00;;;7.91;100.00
28606;BME280;46498;49.968;7.754;2022-12-29T06:52:10;96135.00;;;7.94;100.00
28606;BME280;46498;49.968;7.754;2022-12-29T06:57:13;96126.00;;;7.92;100.00
28606;BME280;46498;49.968;7.754;2022-12-29T07:02:14;96117.00;;;7.90;100.00
28606;BME280;46498;49.968;7.754;2022-12-29T07:07:18;96145.00;;;7.99;100.00
28606;BME280;46498;49.968;7.754;2022-12-29T07:12:20;96137.00;;;8.01;100.00
28606;BME280;46498;49.968;7.754;2022-12-29T07:17:20;96138.00;;;8.09;100.00
28606;BME280;46498;49.968;7.754;2022-12-29T07:22:21;96138.00;;;8.10;100.00
28606;BME280;46498;49.968;7.754;2022-12-29T07:27:22;96145.00;;;8.11;100.00
28606;BME280;46498;49.968;7.754;2022-12-29T07:32:23;96158.00;;;8.13;100.00
28606;BME280;46498;49.968;7.754;2022-12-29T07:37:24;96165.00;;;8.10;100.00
28606;BME280;46498;49.968;7.754;2022-12-29T07:42:25;96177.00;;;8.07;100.00
28606;BME280;46498;49.968;7.754;2022-12-29T07:47:26;96168.00;;;8.09;100.00
28606;BME280;46498;49.968;7.754;2022-12-29T07:52:27;96181.00;;;8.03;100.00
28606;BME280;46498;49.968;7.754;2022-12-29T07:57:28;96178.00;;;8.06;100.00
28606;BME280;46498;49.968;7.754;2022-12-29T08:02:32;96174.00;;;8.02;100.00
28606;BME280;46498;49.968;7.754;2022-12-29T08:07:34;96181.00;;;8.06;100.00
28606;BME280;46498;49.968;7.754;2022-12-29T08:12:35;96188.00;;;8.07;100.00
28606;BME280;46498;49.968;7.754;2022-12-29T08:17:36;96200.00;;;8.14;100.00
28606;BME280;46498;49.968;7.754;2022-12-29T08:22:37;96211.00;;;8.13;100.00
28606;BME280;46498;49.968;7.754;2022-12-29T08:27:38;96206.00;;;8.07;100.00
28606;BME280;46498;49.968;7.754;2022-12-29T08:32:38;96214.00;;;8.03;100.00
28606;BME280;46498;49.968;7.754;2022-12-29T08:37:40;96216.00;;;8.08;100.00
28606;BME280;46498;49.968;7.754;2022-12-29T08:42:41;96213.00;;;8.16;100.00
28606;BME280;46498;49.968;7.754;2022-12-29T08:47:42;96220.00;;;8.32;100.00
28606;BME280;46498;49.968;7.754;2022-12-29T08:52:43;96223.00;;;8.34;100.00
28606;BME280;46498;49.968;7.754;2022-12-29T08:57:44;96213.00;;;8.38;100.00
28606;BME280;46498;49.968;7.754;2022-12-29T09:02:51;96215.00;;;8.39;100.00
28606;BME280;46498;49.968;7.754;2022-12-29T09:07:52;96225.00;;;8.47;100.00
28606;BME280;46498;49.968;7.754;2022-12-29T09:12:53;96226.00;;;8.60;100.00
28606;BME280;46498;49.968;7.754;2022-12-29T09:17:53;96233.00;;;8.65;100.00
28606;BME280;46498;49.968;7.754;2022-12-29T09:22:56;96252.00;;;8.63;100.00
28606;BME280;46498;49.968;7.754;2022-12-29T09:27:56;96244.00;;;8.65;100.00
28606;BME280;46498;49.968;7.754;2022-12-29T09:32:57;96242.00;;;8.56;100.00
28606;BME280;46498;49.968;7.754;2022-12-29T09:37:58;96246.00;;;8.59;100.00
28606;BME280;46498;49.968;7.754;2022-12-29T09:45:10;96246.00;;;8.68;100.00
28606;BME280;46498;49.968;7.754;2022-12-29T09:50:28;96248.00;;;8.67;100.00
28606;BME280;46498;49.968;7.754;2022-12-29T09:55:42;96258.00;;;8.74;100.00
28606;BME280;46498;49.968;7.754;2022-12-29T10:07:39;96251.00;;;9.18;100.00
28606;BME280;46498;49.968;7.754;2022-12-29T10:20:04;96255.00;;;9.42;94.24
28606;BME280;46498;49.968;7.754;2022-12-29T10:25:22;96257.00;;;9.68;91.73
28606;BME280;46498;49.968;7.754;2022-12-29T10:30:33;96260.00;;;9.81;89.02
28606;BME280;46498;49.968;7.754;2022-12-29T10:35:37;96252.00;;;9.47;88.40
28606;BME280;46498;49.968;7.754;2022-12-29T10:40:46;96268.00;;;9.65;88.32
28606;BME280;46498;49.968;7.754;2022-12-29T10:45:52;96275.00;;;10.01;86.23
28606;BME280;46498;49.968;7.754;2022-12-29T10:50:56;96280.00;;;9.74;88.93
28606;BME280;46498;49.968;7.754;2022-12-29T10:56:05;96265.00;;;9.42;91.01
28606;BME280;46498;49.968;7.754;2022-12-29T11:01:14;96281.00;;;9.22;91.21
28606;BME280;46498;49.968;7.754;2022-12-29T11:06:23;96277.00;;;9.35;91.39
28606;BME280;46498;49.968;7.754;2022-12-29T11:11:28;96272.00;;;9.59;89.27
28606;BME280;46498;49.968;7.754;2022-12-29T11:16:33;96271.00;;;9.65;88.10
28606;BME280;46498;49.968;7.754;2022-12-29T11:21:37;96277.00;;;9.52;87.86
28606;BME280;46498;49.968;7.754;2022-12-29T11:26:43;96282.00;;;9.56;88.08
28606;BME280;46498;49.968;7.754;2022-12-29T11:31:49;96288.00;;;9.82;85.70
28606;BME280;46498;49.968;7.754;2022-12-29T11:36:53;96299.00;;;9.95;85.68
28606;BME280;46498;49.968;7.754;2022-12-29T11:42:00;96301.00;;;10.04;83.85
28606;BME280;46498;49.968;7.754;2022-12-29T11:47:03;96294.00;;;10.42;81.24
28606;BME280;46498;49.968;7.754;2022-12-29T11:52:06;96305.00;;;10.17;81.22
28606;BME280;46498;49.968;7.754;2022-12-29T11:57:15;96307.00;;;10.04;81.60
28606;BME280;46498;49.968;7.754;2022-12-29T12:02:40;96295.00;;;9.95;82.17
28606;BME280;46498;49.968;7.754;2022-12-29T12:07:46;96300.00;;;9.65;83.36
28606;BME280;46498;49.968;7.754;2022-12-29T12:13:02;96299.00;;;9.55;85.67
28606;BME280;46498;49.968;7.754;2022-12-29T12:18:09;96291.00;;;9.46;88.00
28606;BME280;46498;49.968;7.754;2022-12-29T12:24:57;96294.00;;;9.46;88.52
28606;BME280;46498;49.968;7.754;2022-12-29T12:30:03;96293.00;;;9.30;90.16
28606;BME280;46498;49.968;7.754;2022-12-29T12:35:11;96302.00;;;9.76;88.94
28606;BME280;46498;49.968;7.754;2022-12-29T12:40:58;96305.00;;;9.68;90.55
28606;BME280;46498;49.968;7.754;2022-12-29T12:47:12;96288.00;;;9.62;87.55
28606;BME280;46498;49.968;7.754;2022-12-29T12:53:32;96299.00;;;9.97;85.82
28606;BME280;46498;49.968;7.754;2022-12-29T12:59:39;96282.00;;;9.76;84.06
28606;BME280;46498;49.968;7.754;2022-12-29T13:07:24;96283.00;;;9.68;85.49
28606;BME280;46498;49.968;7.754;2022-12-29T13:12:59;96289.00;;;10.16;82.43
28606;BME280;46498;49.968;7.754;2022-12-29T13:18:31;96283.00;;;9.71;83.75
28606;BME280;46498;49.968;7.754;2022-12-29T13:24:00;96296.00;;;9.53;85.53
28606;BME280;46498;49.968;7.754;2022-12-29T13:29:16;96297.00;;;9.54;84.67
28606;BME280;46498;49.968;7.754;2022-12-29T13:34:47;96300.00;;;9.89;79.37
28606;BME280;46498;49.968;7.754;2022-12-29T13:39:55;96300.00;;;9.50;80.99
28606;BME280;46498;49.968;7.754;2022-12-29T13:45:13;96308.00;;;9.40;81.82
28606;BME280;46498;49.968;7.754;2022-12-29T13:50:19;96298.00;;;9.35;81.20
28606;BME280;46498;49.968;7.754;2022-12-29T14:03:53;96310.00;;;9.07;83.72
28606;BME280;46498;49.968;7.754;2022-12-29T14:14:20;96325.00;;;8.93;82.40
28606;BME280;46498;49.968;7.754;2022-12-29T14:19:30;96337.00;;;8.90;83.84
28606;BME280;46498;49.968;7.754;2022-12-29T14:24:45;96342.00;;;8.95;84.91
28606;BME280;46498;49.968;7.754;2022-12-29T14:29:48;96344.00;;;8.91;83.31
28606;BME280;46498;49.968;7.754;2022-12-29T14:34:57;96342.00;;;8.82;83.57
28606;BME280;46498;49.968;7.754;2022-12-29T14:40:23;96327.00;;;8.83;82.38
28606;BME280;46498;49.968;7.754;2022-12-29T14:45:29;96329.00;;;8.74;82.81
28606;BME280;46498;49.968;7.754;2022-12-29T14:50:42;96342.00;;;8.58;84.53
28606;BME280;46498;49.968;7.754;2022-12-29T14:55:45;96361.00;;;8.49;85.56
28606;BME280;46498;49.968;7.754;2022-12-29T15:00:53;96376.00;;;8.36;85.50
28606;BME280;46498;49.968;7.754;2022-12-29T15:06:04;96372.00;;;8.37;84.79
28606;BME280;46498;49.968;7.754;2022-12-29T15:11:41;96382.00;;;8.31;84.53
28606;BME280;46498;49.968;7.754;2022-12-29T15:16:44;96371.00;;;8.24;84.59
28606;BME280;46498;49.968;7.754;2022-12-29T15:21:46;96385.00;;;8.19;84.73
28606;BME280;46498;49.968;7.754;2022-12-29T15:26:50;96378.00;;;8.16;85.50
28606;BME280;46498;49.968;7.754;2022-12-29T15:31:52;96397.00;;;8.14;85.86
28606;BME280;46498;49.968;7.754;2022-12-29T15:36:53;96398.00;;;8.03;87.33
28606;BME280;46498;49.968;7.754;2022-12-29T15:41:56;96399.00;;;8.00;88.16
28606;BME280;46498;49.968;7.754;2022-12-29T15:47:14;96407.00;;;8.02;88.59
28606;BME280;46498;49.968;7.754;2022-12-29T15:52:19;96403.00;;;8.03;88.54
28606;BME280;46498;49.968;7.754;2022-12-29T15:57:29;96398.00;;;8.03;88.75
28606;BME280;46498;49.968;7.754;2022-12-29T16:02:30;96399.00;;;8.00;89.71
28606;BME280;46498;49.968;7.754;2022-12-29T16:07:32;96406.00;;;7.80;91.71
28606;BME280;46498;49.968;7.754;2022-12-29T16:12:42;96411.00;;;7.73;92.27
28606;BME280;46498;49.968;7.754;2022-12-29T16:17:48;96425.00;;;7.64;92.41
28606;BME280;46498;49.968;7.754;2022-12-29T16:22:53;96424.00;;;7.67;91.88
28606;BME280;46498;49.968;7.754;2022-12-29T16:27:55;96421.00;;;7.58;92.19
28606;BME280;46498;49.968;7.754;2022-12-29T16:33:05;96432.00;;;7.50;92.85
28606;BME280;46498;49.968;7.754;2022-12-29T16:38:17;96440.00;;;7.56;92.73
28606;BME280;46498;49.968;7.754;2022-12-29T16:43:31;96453.00;;;7.40;93.91
28606;BME280;46498;49.968;7.754;2022-12-29T16:48:36;96454.00;;;7.41;93.74
28606;BME280;46498;49.968;7.754;2022-12-29T16:53:51;96466.00;;;7.33;93.78
28606;BME280;46498;49.968;7.754;2022-12-29T16:59:40;96471.00;;;7.27;93.24
28606;BME280;46498;49.968;7.754;2022-12-29T17:04:44;96466.00;;;7.26;93.76
28606;BME280;46498;49.968;7.754;2022-12-29T17:09:49;96469.00;;;7.19;93.68
28606;BME280;46498;49.968;7.754;2022-12-29T17:14:59;96450.00;;;7.23;93.59
28606;BME280;46498;49.968;7.754;2022-12-29T17:20:05;96463.00;;;7.27;93.45
28606;BME280;46498;49.968;7.754;2022-12-29T17:25:11;96465.00;;;7.04;93.64
28606;BME280;46498;49.968;7.754;2022-12-29T17:30:15;96485.00;;;6.94;95.06
28606;BME280;46498;49.968;7.754;2022-12-29T17:35:18;96475.00;;;6.84;95.89
28606;BME280;46498;49.968;7.754;2022-12-29T17:40:31;96472.00;;;6.93;95.60
28606;BME280;46498;49.968;7.754;2022-12-29T17:45:32;96467.00;;;6.90;94.96
28606;BME280;46498;49.968;7.754;2022-12-29T17:50:33;96471.00;;;6.64;96.72
28606;BME280;46498;49.968;7.754;2022-12-29T17:55:35;96474.00;;;6.37;99.98
28606;BME280;46498;49.968;7.754;2022-12-29T18:00:39;96490.00;;;6.52;98.88
28606;BME280;46498;49.968;7.754;2022-12-29T18:05:40;96494.00;;;6.55;98.64
28606;BME280;46498;49.968;7.754;2022-12-29T18:10:41;96491.00;;;6.37;100.00
28606;BME280;46498;49.968;7.754;2022-12-29T18:15:42;96492.00;;;6.31;100.00
28606;BME280;46498;49.968;7.754;2022-12-29T18:20:44;96502.00;;;6.40;100.00
28606;BME280;46498;49.968;7.754;2022-12-29T18:25:50;96506.00;;;6.38;100.00
28606;BME280;46498;49.968;7.754;2022-12-29T18:30:55;96509.00;;;6.31;100.00
28606;BME280;46498;49.968;7.754;2022-12-29T18:35:59;96505.00;;;6.39;100.00
28606;BME280;46498;49.968;7.754;2022-12-29T18:41:00;96512.00;;;6.31;100.00
28606;BME280;46498;49.968;7.754;2022-12-29T18:46:01;96513.00;;;6.30;100.00
28606;BME280;46498;49.968;7.754;2022-12-29T18:51:03;96517.00;;;6.38;100.00
28606;BME280;46498;49.968;7.754;2022-12-29T18:56:04;96518.00;;;6.37;100.00
28606;BME280;46498;49.968;7.754;2022-12-29T19:01:24;96531.00;;;6.46;100.00
28606;BME280;46498;49.968;7.754;2022-12-29T19:06:27;96527.00;;;6.50;100.00
28606;BME280;46498;49.968;7.754;2022-12-29T19:11:28;96530.00;;;6.71;100.00
28606;BME280;46498;49.968;7.754;2022-12-29T19:16:29;96538.00;;;6.59;100.00
28606;BME280;46498;49.968;7.754;2022-12-29T19:21:30;96534.00;;;6.66;100.00
28606;BME280;46498;49.968;7.754;2022-12-29T19:26:34;96531.00;;;6.61;100.00
28606;BME280;46498;49.968;7.754;2022-12-29T19:31:36;96528.00;;;6.68;100.00
28606;BME280;46498;49.968;7.754;2022-12-29T19:36:38;96534.00;;;6.67;100.00
28606;BME280;46498;49.968;7.754;2022-12-29T19:41:38;96529.00;;;6.74;100.00
28606;BME280;46498;49.968;7.754;2022-12-29T19:46:39;96525.00;;;6.79;100.00
28606;BME280;46498;49.968;7.754;2022-12-29T19:51:40;96536.00;;;6.82;100.00
28606;BME280;46498;49.968;7.754;2022-12-29T19:56:41;96538.00;;;6.83;100.00
28606;BME280;46498;49.968;7.754;2022-12-29T20:01:43;96545.00;;;6.84;100.00
28606;BME280;46498;49.968;7.754;2022-12-29T20:06:45;96552.00;;;6.83;100.00
28606;BME280;46498;49.968;7.754;2022-12-29T20:11:46;96558.00;;;6.40;100.00
28606;BME280;46498;49.968;7.754;2022-12-29T20:16:47;96561.00;;;6.10;100.00
28606;BME280;46498;49.968;7.754;2022-12-29T20:22:11;96543.00;;;5.99;100.00
28606;BME280;46498;49.968;7.754;2022-12-29T20:27:13;96559.00;;;6.07;100.00
28606;BME280;46498;49.968;7.754;2022-12-29T20:32:18;96549.00;;;6.17;100.00
28606;BME280;46498;49.968;7.754;2022-12-29T20:37:19;96558.00;;;6.18;100.00
28606;BME280;46498;49.968;7.754;2022-12-29T20:42:21;96566.00;;;6.18;100.00
28606;BME280;46498;49.968;7.754;2022-12-29T20:47:21;96576.00;;;6.12;100.00
28606;BME280;46498;49.968;7.754;2022-12-29T20:52:22;96588.00;;;6.16;100.00
28606;BME280;46498;49.968;7.754;2022-12-29T20:57:23;96598.00;;;6.17;100.00
28606;BME280;46498;49.968;7.754;2022-12-29T21:02:24;96609.00;;;6.19;100.00
28606;BME280;46498;49.968;7.754;2022-12-29T21:07:25;96615.00;;;6.26;100.00
28606;BME280;46498;49.968;7.754;2022-12-29T21:12:26;96611.00;;;6.19;100.00
28606;BME280;46498;49.968;7.754;2022-12-29T21:17:27;96625.00;;;6.13;100.00
28606;BME280;46498;49.968;7.754;2022-12-29T21:22:29;96633.00;;;6.21;100.00
28606;BME280;46498;49.968;7.754;2022-12-29T21:27:31;96609.00;;;6.12;100.00
28606;BME280;46498;49.968;7.754;2022-12-29T21:32:33;96623.00;;;6.12;100.00
28606;BME280;46498;49.968;7.754;2022-12-29T21:37:34;96618.00;;;6.09;100.00
28606;BME280;46498;49.968;7.754;2022-12-29T21:42:35;96627.00;;;6.08;100.00
28606;BME280;46498;49.968;7.754;2022-12-29T21:47:36;96627.00;;;6.06;100.00
28606;BME280;46498;49.968;7.754;2022-12-29T21:52:56;96630.00;;;6.06;100.00
28606;BME280;46498;49.968;7.754;2022-12-29T21:57:56;96642.00;;;6.07;100.00
28606;BME280;46498;49.968;7.754;2022-12-29T22:03:16;96652.00;;;6.06;100.00
28606;BME280;46498;49.968;7.754;2022-12-29T22:08:36;96661.00;;;6.07;100.00
28606;BME280;46498;49.968;7.754;2022-12-29T22:13:56;96671.00;;;5.98;100.00
28606;BME280;46498;49.968;7.754;2022-12-29T22:18:57;96670.00;;;5.99;100.00
28606;BME280;46498;49.968;7.754;2022-12-29T22:23:58;96668.00;;;5.94;100.00
28606;BME280;46498;49.968;7.754;2022-12-29T22:29:00;96673.00;;;5.96;100.00
28606;BME280;46498;49.968;7.754;2022-12-29T22:34:02;96672.00;;;5.92;100.00
28606;BME280;46498;49.968;7.754;2022-12-29T22:39:03;96684.00;;;5.87;100.00
28606;BME280;46498;49.968;7.754;2022-12-29T22:44:04;96702.00;;;5.94;100.00
28606;BME280;46498;49.968;7.754;2022-12-29T22:49:06;96703.00;;;5.86;100.00
28606;BME280;46498;49.968;7.754;2022-12-29T22:54:07;96719.00;;;5.86;100.00
28606;BME280;46498;49.968;7.754;2022-12-29T22:59:10;96708.00;;;5.94;100.00
28606;BME280;46498;49.968;7.754;2022-12-29T23:04:11;96717.00;;;5.95;100.00
28606;BME280;46498;49.968;7.754;2022-12-29T23:10:03;96719.00;;;5.91;100.00
28606;BME280;46498;49.968;7.754;2022-12-29T23:15:05;96729.00;;;5.71;100.00
28606;BME280;46498;49.968;7.754;2022-12-29T23:20:07;96736.00;;;5.77;100.00
28606;BME280;46498;49.968;7.754;2022-12-29T23:25:08;96735.00;;;5.81;100.00
28606;BME280;46498;49.968;7.754;2022-12-29T23:30:09;96735.00;;;5.81;100.00
28606;BME280;46498;49.968;7.754;2022-12-29T23:35:10;96734.00;;;5.65;100.00
28606;BME280;46498;49.968;7.754;2022-12-29T23:40:11;96741.00;;;5.72;100.00
28606;BME280;46498;49.968;7.754;2022-12-29T23:45:12;96744.00;;;5.75;100.00
28606;BME280;46498;49.968;7.754;2022-12-29T23:50:13;96750.00;;;5.70;100.00
28606;BME280;46498;49.968;7.754;2022-12-29T23:55:14;96747.00;;;5.62;100.00
